Time;durP1;ratioP1;P1;durP2;ratioP2;P2;SDS_P1;SDS_P2;PMS_P1;PMS_P2;Temp;Humidity;BMP_temperature;BMP_pressure;BME280_temperature;BME280_humidity;BME280_pressure;Samples;Min_cycle;Max_cycle;Signal;HPM_P1;HPM_P2
2022/11/03 00:01:54;;;;;;;;;;;12.20;99.90;;;;;;8416618;28;20011;-79
2022/11/03 00:06:05;;;;;;;;;;;12.20;99.90;;;;;;8419597;28;20015;-79
2022/11/03 00:10:07;;;;;;;;;;;12.20;99.90;;;;;;8390423;28;20007;-79
2022/11/03 00:14:09;;;;;;;;;;;12.20;99.90;;;;;;8424062;28;20023;-79
2022/11/03 00:18:11;;;;;;;;;;;12.20;99.90;;;;;;8414416;28;19924;-79
2022/11/03 00:22:12;;;;;;;;;;;12.20;99.90;;;;;;8404326;28;19928;-79
2022/11/03 00:26:16;;;;;;;;;;;12.20;99.90;;;;;;8430676;28;19923;-79
2022/11/03 00:30:17;;;;;;;;;;;12.10;99.90;;;;;;8411893;28;19924;-78
2022/11/03 00:44:20;;;;;;;;;;;12.10;99.90;;;;;;8427346;28;20288;-80
2022/11/03 00:48:28;;;;;;;;;;;12.10;99.90;;;;;;8417352;28;19931;-79
2022/11/03 00:52:30;;;;;;;;;;;12.10;99.90;;;;;;8443021;27;19958;-80
2022/11/03 00:56:36;;;;;;;;;;;12.10;99.90;;;;;;8407172;28;19938;-79
2022/11/03 01:00:38;;;;;;;;;;;12.00;99.90;;;;;;8431937;28;22221;-79
2022/11/03 01:08:59;;;;;;;;;;;12.10;99.90;;;;;;8420757;28;19934;-79
2022/11/03 01:13:01;;;;;;;;;;;12.10;99.90;;;;;;8425843;28;19964;-80
2022/11/03 01:17:04;;;;;;;;;;;12.10;99.90;;;;;;8430983;28;19932;-79
2022/11/03 01:21:05;;;;;;;;;;;12.10;99.90;;;;;;8431564;27;19932;-79
2022/11/03 01:25:07;;;;;;;;;;;12.10;99.90;;;;;;8441057;27;20260;-79
2022/11/03 01:29:09;;;;;;;;;;;12.10;99.90;;;;;;8435372;28;19938;-80
2022/11/03 01:33:11;;;;;;;;;;;12.10;99.90;;;;;;8432657;28;19924;-80
2022/11/03 01:37:12;;;;;;;;;;;12.20;99.90;;;;;;8441296;27;20388;-80
2022/11/03 01:41:16;;;;;;;;;;;12.20;99.90;;;;;;8429075;28;19935;-80
2022/11/03 01:45:17;;;;;;;;;;;12.20;99.90;;;;;;8425573;28;19924;-80
2022/11/03 01:49:23;;;;;;;;;;;12.20;99.90;;;;;;8424165;28;19924;-80
2022/11/03 01:53:25;;;;;;;;;;;12.20;99.90;;;;;;8417675;28;19928;-79
2022/11/03 01:57:33;;;;;;;;;;;12.20;99.90;;;;;;8426194;28;19924;-80
2022/11/03 02:01:35;;;;;;;;;;;12.20;99.90;;;;;;8427513;28;20233;-79
2022/11/03 02:05:37;;;;;;;;;;;12.20;99.90;;;;;;8430506;28;19931;-80
2022/11/03 02:09:39;;;;;;;;;;;12.20;99.90;;;;;;8423655;28;19923;-79
2022/11/03 02:13:40;;;;;;;;;;;12.20;99.90;;;;;;8412753;28;20019;-79
2022/11/03 02:17:42;;;;;;;;;;;12.20;99.90;;;;;;8422765;28;20297;-80
2022/11/03 02:21:47;;;;;;;;;;;12.20;99.90;;;;;;8418738;28;19932;-79
2022/11/03 02:25:49;;;;;;;;;;;12.20;99.90;;;;;;8440744;27;20471;-80
2022/11/03 02:29:50;;;;;;;;;;;12.20;99.90;;;;;;8425364;28;19935;-80
2022/11/03 02:33:52;;;;;;;;;;;12.20;99.90;;;;;;8414027;28;19928;-79
2022/11/03 02:37:56;;;;;;;;;;;12.20;99.90;;;;;;8427070;28;19932;-79
2022/11/03 02:41:58;;;;;;;;;;;12.20;99.90;;;;;;8409080;28;19930;-79
2022/11/03 02:46:02;;;;;;;;;;;12.20;99.90;;;;;;8415392;27;20330;-80
2022/11/03 02:50:07;;;;;;;;;;;12.20;99.90;;;;;;8428512;28;20310;-79
2022/11/03 02:54:18;;;;;;;;;;;12.20;99.90;;;;;;8411164;28;20291;-80
2022/11/03 02:58:23;;;;;;;;;;;12.20;99.90;;;;;;8430264;28;19954;-81
2022/11/03 03:02:31;;;;;;;;;;;12.20;99.90;;;;;;8416537;28;20015;-79
2022/11/03 03:06:41;;;;;;;;;;;12.30;99.90;;;;;;8411524;28;20397;-79
2022/11/03 03:10:44;;;;;;;;;;;12.30;99.90;;;;;;8421327;28;19927;-79
2022/11/03 03:14:46;;;;;;;;;;;12.30;99.90;;;;;;8422473;28;19925;-80
2022/11/03 03:18:50;;;;;;;;;;;12.30;99.90;;;;;;8412343;28;20026;-79
2022/11/03 03:22:56;;;;;;;;;;;12.30;99.90;;;;;;8418450;28;20011;-79
2022/11/03 03:27:00;;;;;;;;;;;12.30;99.90;;;;;;8418720;28;19924;-81
2022/11/03 03:31:04;;;;;;;;;;;12.40;99.90;;;;;;8419463;28;19928;-79
2022/11/03 03:35:08;;;;;;;;;;;12.40;99.90;;;;;;8416761;28;20290;-79
2022/11/03 03:39:11;;;;;;;;;;;12.40;99.90;;;;;;8423321;28;20034;-78
2022/11/03 03:43:13;;;;;;;;;;;12.40;99.90;;;;;;8419565;28;19942;-79
2022/11/03 03:47:22;;;;;;;;;;;12.40;99.90;;;;;;8426876;28;19928;-77
2022/11/03 03:51:25;;;;;;;;;;;12.50;99.90;;;;;;8427451;28;20290;-77
2022/11/03 03:55:33;;;;;;;;;;;12.50;99.90;;;;;;8403033;28;20290;-78
2022/11/03 03:59:34;;;;;;;;;;;12.50;99.90;;;;;;8399735;28;19932;-78
2022/11/03 04:03:36;;;;;;;;;;;12.50;99.90;;;;;;8419372;28;19930;-77
2022/11/03 04:07:47;;;;;;;;;;;12.50;99.90;;;;;;8426167;28;19963;-78
2022/11/03 04:24:50;;;;;;;;;;;12.50;99.90;;;;;;8426714;28;19938;-77
2022/11/03 04:28:51;;;;;;;;;;;12.50;99.90;;;;;;8412103;28;20020;-77
2022/11/03 04:32:53;;;;;;;;;;;12.50;99.90;;;;;;8420187;28;19978;-77
2022/11/03 04:36:55;;;;;;;;;;;12.50;99.90;;;;;;8432403;28;19938;-79
2022/11/03 04:40:57;;;;;;;;;;;12.50;99.90;;;;;;8420518;28;20283;-79
2022/11/03 04:45:00;;;;;;;;;;;12.50;99.90;;;;;;8376298;28;1744665;-79
2022/11/03 04:49:03;;;;;;;;;;;12.50;99.90;;;;;;8429109;28;20297;-79
2022/11/03 04:53:08;;;;;;;;;;;12.50;99.90;;;;;;8422496;28;20019;-77
2022/11/03 04:57:13;;;;;;;;;;;12.50;99.90;;;;;;8421155;28;19932;-79
2022/11/03 05:01:17;;;;;;;;;;;12.50;99.90;;;;;;8425503;28;20405;-78
2022/11/03 05:05:25;;;;;;;;;;;12.50;99.90;;;;;;8425359;28;20375;-78
2022/11/03 05:09:28;;;;;;;;;;;12.50;99.90;;;;;;8425223;28;19947;-78
2022/11/03 05:13:29;;;;;;;;;;;12.50;99.90;;;;;;8421690;28;19932;-79
2022/11/03 05:17:31;;;;;;;;;;;12.50;99.90;;;;;;8434695;28;19928;-78
2022/11/03 05:21:33;;;;;;;;;;;12.60;99.90;;;;;;8436428;28;19928;-79
2022/11/03 05:25:40;;;;;;;;;;;12.50;99.90;;;;;;8421665;28;20063;-78
2022/11/03 05:29:41;;;;;;;;;;;12.50;99.90;;;;;;8416735;28;20013;-79
2022/11/03 05:33:46;;;;;;;;;;;12.50;99.90;;;;;;8431149;28;20290;-79
2022/11/03 05:37:48;;;;;;;;;;;12.60;99.90;;;;;;8431830;28;20401;-78
2022/11/03 05:41:50;;;;;;;;;;;12.60;99.90;;;;;;8430509;28;20286;-79
2022/11/03 05:45:54;;;;;;;;;;;12.60;99.90;;;;;;8433072;28;20392;-79
2022/11/03 05:49:59;;;;;;;;;;;12.60;99.90;;;;;;8430300;28;19933;-78
2022/11/03 05:54:02;;;;;;;;;;;12.60;99.90;;;;;;8429971;28;20450;-79
2022/11/03 05:58:14;;;;;;;;;;;12.60;99.90;;;;;;8421823;28;19928;-79
2022/11/03 06:02:31;;;;;;;;;;;12.60;99.90;;;;;;8426239;28;20351;-78
2022/11/03 06:06:34;;;;;;;;;;;12.60;99.90;;;;;;8424131;28;19924;-78
2022/11/03 06:10:38;;;;;;;;;;;12.60;99.90;;;;;;8427734;28;19928;-79
2022/11/03 06:14:40;;;;;;;;;;;12.70;99.90;;;;;;8436248;28;19975;-78
2022/11/03 06:18:41;;;;;;;;;;;12.70;99.90;;;;;;8429946;28;20016;-78
2022/11/03 06:22:44;;;;;;;;;;;12.70;99.90;;;;;;8417756;28;20363;-78
2022/11/03 06:26:47;;;;;;;;;;;12.70;99.90;;;;;;8428849;28;19978;-79
2022/11/03 06:30:49;;;;;;;;;;;12.70;99.90;;;;;;8429137;28;19924;-78
2022/11/03 06:34:56;;;;;;;;;;;12.70;99.90;;;;;;8437342;28;19924;-78
2022/11/03 06:39:34;;;;;;;;;;;12.70;99.90;;;;;;8418192;28;19924;-79
2022/11/03 06:43:38;;;;;;;;;;;12.70;99.90;;;;;;8362862;28;20371;-79
2022/11/03 06:47:40;;;;;;;;;;;12.70;99.90;;;;;;8427223;28;20390;-78
2022/11/03 06:51:41;;;;;;;;;;;12.80;99.90;;;;;;8427730;28;20306;-79
2022/11/03 06:55:43;;;;;;;;;;;12.80;99.90;;;;;;8418889;28;20375;-78
2022/11/03 06:59:45;;;;;;;;;;;12.80;99.90;;;;;;8424154;28;19943;-78
2022/11/03 07:03:51;;;;;;;;;;;12.90;99.90;;;;;;8411514;28;19932;-78
2022/11/03 07:07:57;;;;;;;;;;;12.90;99.90;;;;;;8420606;28;19934;-78
2022/11/03 07:11:59;;;;;;;;;;;12.90;99.90;;;;;;8427825;28;19924;-78
2022/11/03 07:16:01;;;;;;;;;;;12.90;99.90;;;;;;8409142;28;19924;-78
2022/11/03 07:20:08;;;;;;;;;;;12.90;99.90;;;;;;8426049;28;19930;-79
2022/11/03 07:24:13;;;;;;;;;;;13.00;99.90;;;;;;8428482;28;20388;-79
2022/11/03 07:28:14;;;;;;;;;;;13.00;99.90;;;;;;8434408;28;20409;-78
2022/11/03 07:32:18;;;;;;;;;;;13.00;99.90;;;;;;8428217;28;19961;-80
2022/11/03 07:36:21;;;;;;;;;;;13.00;99.90;;;;;;8431941;28;19930;-79
2022/11/03 07:40:24;;;;;;;;;;;13.00;99.90;;;;;;8424544;28;20360;-79
2022/11/03 07:44:27;;;;;;;;;;;13.10;99.90;;;;;;8429529;28;19928;-78
2022/11/03 07:48:48;;;;;;;;;;;13.10;99.90;;;;;;8417525;28;19924;-79
2022/11/03 07:52:49;;;;;;;;;;;13.10;99.90;;;;;;8423532;28;19931;-79
2022/11/03 07:57:11;;;;;;;;;;;13.10;99.90;;;;;;8418730;28;19937;-79
2022/11/03 08:01:21;;;;;;;;;;;13.10;99.90;;;;;;8418412;28;19930;-78
2022/11/03 08:05:22;;;;;;;;;;;13.20;99.90;;;;;;8430863;28;19963;-78
2022/11/03 08:09:24;;;;;;;;;;;13.20;99.90;;;;;;8417843;28;20723;-78
2022/11/03 08:13:26;;;;;;;;;;;13.20;99.90;;;;;;8426928;28;20603;-77
2022/11/03 08:17:27;;;;;;;;;;;13.20;99.90;;;;;;8427239;28;19986;-78
2022/11/03 08:21:29;;;;;;;;;;;13.20;99.90;;;;;;8410311;28;19924;-78
2022/11/03 08:25:30;;;;;;;;;;;13.20;99.90;;;;;;8428749;28;19928;-79
2022/11/03 08:29:32;;;;;;;;;;;13.30;99.90;;;;;;8427221;28;20329;-78
2022/11/03 08:33:34;;;;;;;;;;;13.30;99.90;;;;;;8427263;28;20023;-78
2022/11/03 08:37:35;;;;;;;;;;;13.40;99.90;;;;;;8426247;28;20054;-79
2022/11/03 08:41:37;;;;;;;;;;;13.40;99.90;;;;;;8427448;28;19938;-78
2022/11/03 08:45:39;;;;;;;;;;;13.40;99.90;;;;;;8435916;28;19980;-78
2022/11/03 08:49:40;;;;;;;;;;;13.50;99.90;;;;;;8430695;28;19930;-78
2022/11/03 08:53:42;;;;;;;;;;;13.50;99.90;;;;;;8426982;28;20034;-79
2022/11/03 08:57:44;;;;;;;;;;;13.60;99.90;;;;;;8422781;28;19959;-78
2022/11/03 09:01:46;;;;;;;;;;;13.60;99.90;;;;;;8425934;28;19924;-79
2022/11/03 09:05:47;;;;;;;;;;;13.70;99.90;;;;;;8433716;28;20340;-78
2022/11/03 09:09:49;;;;;;;;;;;13.70;99.90;;;;;;8432542;28;19928;-78
2022/11/03 09:14:10;;;;;;;;;;;13.80;99.90;;;;;;8415640;28;19970;-78
2022/11/03 09:18:12;;;;;;;;;;;13.80;99.90;;;;;;8432545;28;20022;-78
2022/11/03 09:22:14;;;;;;;;;;;13.90;99.90;;;;;;8429631;28;20299;-78
2022/11/03 09:26:15;;;;;;;;;;;13.90;99.90;;;;;;8418027;28;20375;-78
2022/11/03 09:30:17;;;;;;;;;;;14.00;99.90;;;;;;8426280;28;19928;-78
2022/11/03 09:34:18;;;;;;;;;;;14.00;99.90;;;;;;8428938;28;20384;-78
2022/11/03 09:38:20;;;;;;;;;;;14.10;99.90;;;;;;8428966;28;19930;-79
2022/11/03 09:42:22;;;;;;;;;;;14.10;99.90;;;;;;8430876;28;19994;-78
2022/11/03 09:46:24;;;;;;;;;;;14.20;99.90;;;;;;8435685;28;19963;-78
2022/11/03 09:50:26;;;;;;;;;;;14.20;99.90;;;;;;8429812;28;19924;-78
2022/11/03 09:54:28;;;;;;;;;;;14.30;99.90;;;;;;8410912;28;19934;-78
2022/11/03 09:58:31;;;;;;;;;;;14.40;99.90;;;;;;8432792;28;19928;-78
2022/11/03 10:02:34;;;;;;;;;;;14.50;99.90;;;;;;8430288;28;20007;-78
2022/11/03 10:06:36;;;;;;;;;;;14.50;99.90;;;;;;8435069;28;19928;-79
2022/11/03 10:10:38;;;;;;;;;;;14.50;99.90;;;;;;8423218;28;19932;-78
2022/11/03 10:14:41;;;;;;;;;;;14.50;99.90;;;;;;8419801;28;19962;-78
2022/11/03 10:18:43;;;;;;;;;;;14.50;99.90;;;;;;8418347;28;20383;-78
2022/11/03 10:22:46;;;;;;;;;;;14.50;99.90;;;;;;8423466;28;19935;-78
2022/11/03 10:26:48;;;;;;;;;;;14.50;99.90;;;;;;8428235;28;20026;-78
2022/11/03 10:30:51;;;;;;;;;;;14.50;99.90;;;;;;8410013;28;19981;-77
2022/11/03 10:35:32;;;;;;;;;;;14.40;99.90;;;;;;8417722;28;19978;-77
2022/11/03 10:39:34;;;;;;;;;;;14.40;99.90;;;;;;8422141;28;20362;-78
2022/11/03 10:43:36;;;;;;;;;;;14.40;99.90;;;;;;8433598;28;20287;-78
2022/11/03 10:47:38;;;;;;;;;;;14.40;99.90;;;;;;8399888;28;19924;-78
2022/11/03 10:51:44;;;;;;;;;;;14.40;99.90;;;;;;8420727;28;19925;-78
2022/11/03 10:55:45;;;;;;;;;;;14.40;99.90;;;;;;8397636;28;19935;-78
2022/11/03 10:59:48;;;;;;;;;;;14.40;99.90;;;;;;8392447;28;19928;-78
2022/11/03 11:03:50;;;;;;;;;;;14.50;99.90;;;;;;8398181;28;19925;-78
2022/11/03 11:07:52;;;;;;;;;;;14.50;99.90;;;;;;8377743;28;19939;-78
2022/11/03 11:11:58;;;;;;;;;;;14.60;99.90;;;;;;8364295;28;19928;-80
2022/11/03 11:16:00;;;;;;;;;;;14.60;99.90;;;;;;8375150;28;20376;-78
2022/11/03 11:20:21;;;;;;;;;;;14.60;99.90;;;;;;8378808;28;19924;-78
2022/11/03 11:24:41;;;;;;;;;;;14.70;99.90;;;;;;8409309;28;19983;-78
2022/11/03 11:29:06;;;;;;;;;;;14.80;99.90;;;;;;8396007;28;19928;-78
2022/11/03 11:33:13;;;;;;;;;;;15.00;99.90;;;;;;8396010;28;19931;-78
2022/11/03 11:37:14;;;;;;;;;;;15.30;99.90;;;;;;8395875;28;20653;-78
2022/11/03 11:41:16;;;;;;;;;;;15.40;99.90;;;;;;8385932;28;20049;-78
2022/11/03 11:45:37;;;;;;;;;;;15.40;99.90;;;;;;8394727;28;19927;-79
2022/11/03 11:49:39;;;;;;;;;;;15.40;99.90;;;;;;8394079;28;20302;-79
2022/11/03 11:53:41;;;;;;;;;;;15.40;99.90;;;;;;8391321;28;19928;-78
2022/11/03 11:57:43;;;;;;;;;;;15.50;99.90;;;;;;8391595;28;20360;-79
2022/11/03 12:01:47;;;;;;;;;;;15.60;99.90;;;;;;8393650;28;19929;-78
2022/11/03 12:05:49;;;;;;;;;;;15.70;99.90;;;;;;8394754;28;19958;-77
2022/11/03 12:09:50;;;;;;;;;;;15.80;99.90;;;;;;8396818;28;19931;-79
2022/11/03 12:13:52;;;;;;;;;;;15.80;99.90;;;;;;8392183;28;20291;-78
2022/11/03 12:17:54;;;;;;;;;;;15.70;99.90;;;;;;8395862;28;19929;-78
2022/11/03 12:21:55;;;;;;;;;;;15.80;99.90;;;;;;8395197;28;20106;-78
2022/11/03 12:25:57;;;;;;;;;;;15.90;99.90;;;;;;8397091;28;20079;-78
2022/11/03 12:30:01;;;;;;;;;;;16.00;99.90;;;;;;8397342;28;20557;-78
2022/11/03 12:34:02;;;;;;;;;;;16.20;99.90;;;;;;8416620;28;19924;-78
2022/11/03 12:38:04;;;;;;;;;;;16.20;99.90;;;;;;8411047;28;20035;-78
2022/11/03 12:42:06;;;;;;;;;;;16.40;99.90;;;;;;8400160;28;19932;-78
2022/11/03 12:46:07;;;;;;;;;;;16.70;99.90;;;;;;8380903;28;20507;-78
2022/11/03 12:50:09;;;;;;;;;;;16.80;99.90;;;;;;8403498;28;19931;-78
2022/11/03 12:54:11;;;;;;;;;;;16.90;99.90;;;;;;8410997;28;19924;-78
2022/11/03 12:58:12;;;;;;;;;;;17.20;99.90;;;;;;8410337;28;19931;-78
2022/11/03 13:02:14;;;;;;;;;;;17.50;99.90;;;;;;8408056;28;20036;-77
2022/11/03 13:06:16;;;;;;;;;;;17.70;99.90;;;;;;8413372;28;19928;-79
2022/11/03 13:10:17;;;;;;;;;;;17.70;99.90;;;;;;8412356;28;19932;-79
2022/11/03 13:14:20;;;;;;;;;;;17.70;99.90;;;;;;8399218;28;19932;-78
2022/11/03 13:18:21;;;;;;;;;;;17.60;99.90;;;;;;8399691;28;19932;-78
2022/11/03 13:22:23;;;;;;;;;;;17.50;99.90;;;;;;8404839;28;20375;-78
2022/11/03 13:26:24;;;;;;;;;;;17.40;99.90;;;;;;8407276;28;20390;-78
2022/11/03 13:30:26;;;;;;;;;;;17.20;99.90;;;;;;8404911;28;19924;-79
2022/11/03 13:34:29;;;;;;;;;;;17.10;99.90;;;;;;8411592;28;19950;-78
2022/11/03 13:38:30;;;;;;;;;;;16.90;99.90;;;;;;8402588;28;19924;-77
2022/11/03 13:42:32;;;;;;;;;;;16.80;99.90;;;;;;8401609;28;20315;-77
2022/11/03 13:46:34;;;;;;;;;;;16.70;99.90;;;;;;8406295;28;19932;-78
2022/11/03 13:50:35;;;;;;;;;;;16.60;99.90;;;;;;8400566;28;19928;-78
2022/11/03 13:54:37;;;;;;;;;;;16.50;99.90;;;;;;8398099;28;19929;-78
2022/11/03 13:58:59;;;;;;;;;;;16.40;99.90;;;;;;8395995;28;19925;-77
2022/11/03 14:03:21;;;;;;;;;;;16.30;99.90;;;;;;8398578;28;19936;-78
2022/11/03 14:07:42;;;;;;;;;;;16.20;99.90;;;;;;8403968;28;19932;-77
2022/11/03 14:16:04;;;;;;;;;;;16.10;99.90;;;;;;8399671;28;19972;-77
2022/11/03 14:20:08;;;;;;;;;;;16.10;99.90;;;;;;8385196;28;19924;-78
2022/11/03 14:24:10;;;;;;;;;;;16.00;99.90;;;;;;8404758;28;19928;-78
2022/11/03 14:28:11;;;;;;;;;;;16.00;99.90;;;;;;8399046;28;19923;-78
2022/11/03 14:32:17;;;;;;;;;;;16.00;99.90;;;;;;8397817;28;19929;-78
2022/11/03 14:36:19;;;;;;;;;;;15.90;99.90;;;;;;8404626;28;20295;-77
2022/11/03 14:44:41;;;;;;;;;;;15.80;99.90;;;;;;8396573;28;20019;-77
2022/11/03 14:48:43;;;;;;;;;;;15.70;99.90;;;;;;8399624;28;20308;-78
2022/11/03 14:52:45;;;;;;;;;;;15.70;99.90;;;;;;8391727;28;19931;-77
2022/11/03 14:56:46;;;;;;;;;;;15.60;99.90;;;;;;8416336;27;20660;-78
2022/11/03 15:00:48;;;;;;;;;;;15.50;99.90;;;;;;8404969;28;20024;-77
2022/11/03 15:04:50;;;;;;;;;;;15.50;99.90;;;;;;8396369;28;19928;-77
2022/11/03 15:08:51;;;;;;;;;;;15.40;99.90;;;;;;8387797;28;19931;-77
2022/11/03 15:18:01;;;;;;;;;;;15.30;99.90;;;;;;8390547;28;19945;-77
2022/11/03 15:22:03;;;;;;;;;;;15.30;99.90;;;;;;8399085;28;19937;-78
2022/11/03 15:26:05;;;;;;;;;;;15.30;99.90;;;;;;8398934;28;19972;-78
2022/11/03 15:30:07;;;;;;;;;;;15.20;99.90;;;;;;8398063;28;20329;-78
2022/11/03 15:34:09;;;;;;;;;;;15.20;99.90;;;;;;8396646;28;19932;-78
2022/11/03 15:38:11;;;;;;;;;;;15.10;99.90;;;;;;8397854;28;19928;-77
2022/11/03 15:42:13;;;;;;;;;;;15.00;99.90;;;;;;8390850;28;19924;-78
2022/11/03 15:46:15;;;;;;;;;;;15.00;99.90;;;;;;8394428;28;19974;-78
2022/11/03 15:50:17;;;;;;;;;;;15.00;99.90;;;;;;8401228;28;20502;-78
2022/11/03 15:54:19;;;;;;;;;;;14.90;99.90;;;;;;8396664;28;20387;-78
2022/11/03 15:58:21;;;;;;;;;;;14.90;99.90;;;;;;8393946;28;19931;-78
2022/11/03 16:02:22;;;;;;;;;;;14.90;99.90;;;;;;8396109;28;19959;-77
2022/11/03 16:06:44;;;;;;;;;;;14.80;99.90;;;;;;8397591;28;19971;-77
2022/11/03 16:11:05;;;;;;;;;;;14.80;99.90;;;;;;8394764;28;19982;-78
2022/11/03 16:15:07;;;;;;;;;;;14.80;99.90;;;;;;8393693;28;19925;-77
2022/11/03 16:19:09;;;;;;;;;;;14.70;99.90;;;;;;8378906;28;19982;-78
2022/11/03 16:23:11;;;;;;;;;;;14.70;99.90;;;;;;8402039;28;19928;-77
2022/11/03 16:27:13;;;;;;;;;;;14.70;99.90;;;;;;8413266;28;19925;-77
2022/11/03 16:31:14;;;;;;;;;;;14.60;99.90;;;;;;8399148;28;20273;-78
2022/11/03 16:35:16;;;;;;;;;;;14.60;99.90;;;;;;8403389;28;19931;-78
2022/11/03 16:39:17;;;;;;;;;;;14.50;99.90;;;;;;8394098;28;19924;-78
2022/11/03 16:43:19;;;;;;;;;;;14.50;99.90;;;;;;8374971;28;19946;-78
2022/11/03 16:47:21;;;;;;;;;;;14.40;99.90;;;;;;8396256;28;19929;-78
2022/11/03 16:51:22;;;;;;;;;;;14.40;99.90;;;;;;8401250;28;20382;-78
2022/11/03 16:55:24;;;;;;;;;;;14.30;99.90;;;;;;8414245;28;19970;-78
2022/11/03 16:59:26;;;;;;;;;;;14.20;99.90;;;;;;8403419;28;20023;-77
2022/11/03 17:03:27;;;;;;;;;;;14.20;99.90;;;;;;8396612;28;20368;-78
2022/11/03 17:07:29;;;;;;;;;;;14.10;99.90;;;;;;8375762;28;19938;-78
2022/11/03 17:11:37;;;;;;;;;;;14.10;99.90;;;;;;8400104;28;19947;-78
2022/11/03 17:15:38;;;;;;;;;;;14.00;99.90;;;;;;8400894;28;19927;-78
2022/11/03 17:19:40;;;;;;;;;;;13.90;99.90;;;;;;8418215;27;20031;-78
2022/11/03 17:23:41;;;;;;;;;;;13.90;99.90;;;;;;8395870;28;20375;-78
2022/11/03 17:27:44;;;;;;;;;;;13.80;99.90;;;;;;8398538;28;19940;-77
2022/11/03 17:31:47;;;;;;;;;;;13.70;99.90;;;;;;8419099;27;20018;-78
2022/11/03 17:35:49;;;;;;;;;;;13.70;99.90;;;;;;8403972;28;19942;-78
2022/11/03 17:44:55;;;;;;;;;;;13.50;99.90;;;;;;8378611;28;19978;-78
2022/11/03 17:48:57;;;;;;;;;;;13.50;99.90;;;;;;8405111;28;20023;-78
2022/11/03 17:53:00;;;;;;;;;;;13.50;99.90;;;;;;8412654;27;19924;-78
2022/11/03 17:57:02;;;;;;;;;;;13.50;99.90;;;;;;8383882;28;20018;-78
2022/11/03 18:13:15;;;;;;;;;;;13.40;99.90;;;;;;8400473;28;19923;-78
2022/11/03 18:15:35;;;;;;;;;;;13.40;99.90;;;;;;8401532;28;19928;-78
2022/11/03 18:19:37;;;;;;;;;;;13.40;99.90;;;;;;8397474;28;19927;-78
2022/11/03 18:23:39;;;;;;;;;;;13.30;99.90;;;;;;8388935;28;19931;-79
2022/11/03 18:27:40;;;;;;;;;;;13.40;99.90;;;;;;8401804;28;19924;-78
2022/11/03 18:31:48;;;;;;;;;;;13.30;99.90;;;;;;8402038;28;19928;-78
2022/11/03 18:35:50;;;;;;;;;;;13.30;99.90;;;;;;8389828;28;20372;-78
2022/11/03 18:39:51;;;;;;;;;;;13.30;99.90;;;;;;8383523;28;19993;-78
2022/11/03 18:43:53;;;;;;;;;;;13.40;99.90;;;;;;8383690;28;19928;-77
2022/11/03 18:47:55;;;;;;;;;;;13.30;99.90;;;;;;8388573;28;20340;-79
2022/11/03 18:51:57;;;;;;;;;;;13.30;99.90;;;;;;8398452;28;19946;-80
2022/11/03 18:56:05;;;;;;;;;;;13.30;99.90;;;;;;8385138;28;19924;-78
2022/11/03 19:00:14;;;;;;;;;;;13.30;99.90;;;;;;8408922;28;19937;-78
2022/11/03 19:04:16;;;;;;;;;;;13.30;99.90;;;;;;8393013;28;19924;-79
2022/11/03 19:08:22;;;;;;;;;;;13.30;99.90;;;;;;8414351;27;20338;-79
2022/11/03 19:12:24;;;;;;;;;;;13.20;99.90;;;;;;8394918;28;19929;-79
2022/11/03 19:16:26;;;;;;;;;;;13.20;99.90;;;;;;8379288;28;19962;-79
2022/11/03 19:20:27;;;;;;;;;;;13.20;99.90;;;;;;8409771;27;19979;-79
2022/11/03 19:24:30;;;;;;;;;;;13.20;99.90;;;;;;8396397;28;19990;-79
2022/11/03 19:28:33;;;;;;;;;;;13.10;99.90;;;;;;8397008;28;19924;-79
2022/11/03 19:32:38;;;;;;;;;;;13.00;99.90;;;;;;8394270;28;19971;-79
2022/11/03 19:47:09;;;;;;;;;;;12.90;99.90;;;;;;8376742;28;19935;-79
2022/11/03 19:51:11;;;;;;;;;;;12.70;99.90;;;;;;8362330;28;19929;-80
2022/11/03 19:55:13;;;;;;;;;;;12.70;99.90;;;;;;8395280;28;20372;-79
2022/11/03 19:59:15;;;;;;;;;;;12.60;99.90;;;;;;8356779;28;20328;-79
2022/11/03 20:03:17;;;;;;;;;;;12.60;99.90;;;;;;8368285;28;19928;-79
2022/11/03 20:22:28;;;;;;;;;;;12.50;99.90;;;;;;8357816;28;19986;-79
2022/11/03 20:26:30;;;;;;;;;;;12.50;99.90;;;;;;8391226;28;19975;-79
2022/11/03 20:30:32;;;;;;;;;;;12.50;99.90;;;;;;8357779;28;20300;-79
2022/11/03 20:34:33;;;;;;;;;;;12.50;99.90;;;;;;8353920;28;19925;-80
2022/11/03 20:38:35;;;;;;;;;;;12.60;99.90;;;;;;8365843;28;19970;-79
2022/11/03 20:42:37;;;;;;;;;;;12.60;99.90;;;;;;8367246;28;20299;-79
2022/11/03 20:46:38;;;;;;;;;;;12.60;99.90;;;;;;8385319;28;19936;-78
2022/11/03 20:50:40;;;;;;;;;;;12.60;99.90;;;;;;8401469;28;19936;-78
2022/11/03 20:54:44;;;;;;;;;;;12.60;99.90;;;;;;8412943;27;19923;-79
2022/11/03 20:58:46;;;;;;;;;;;12.50;99.90;;;;;;8397966;28;19931;-80
2022/11/03 21:02:48;;;;;;;;;;;12.40;99.90;;;;;;8401801;28;20413;-80
2022/11/03 21:06:50;;;;;;;;;;;12.30;99.90;;;;;;8399753;28;19929;-80
2022/11/03 21:10:51;;;;;;;;;;;12.20;99.90;;;;;;8408050;28;19925;-81
2022/11/03 21:23:40;;;;;;;;;;;12.00;99.90;;;;;;8401838;28;19935;-79
2022/11/03 21:27:42;;;;;;;;;;;12.00;99.90;;;;;;8401363;28;19929;-79
2022/11/03 21:31:44;;;;;;;;;;;11.90;99.90;;;;;;8403287;28;20058;-79
2022/11/03 21:35:46;;;;;;;;;;;11.90;99.90;;;;;;8403956;28;20023;-80
2022/11/03 21:39:47;;;;;;;;;;;11.90;99.90;;;;;;8394536;28;19931;-78
2022/11/03 21:52:33;;;;;;;;;;;11.90;99.90;;;;;;8405655;28;20031;-78
2022/11/03 21:56:34;;;;;;;;;;;11.80;99.90;;;;;;8395199;28;20026;-78
2022/11/03 22:00:36;;;;;;;;;;;11.80;99.90;;;;;;8398771;28;20429;-78
2022/11/03 22:04:38;;;;;;;;;;;11.80;99.90;;;;;;8424030;28;19931;-79
2022/11/03 22:08:42;;;;;;;;;;;11.80;99.90;;;;;;8410357;28;19924;-79
2022/11/03 22:12:44;;;;;;;;;;;11.80;99.90;;;;;;8426289;28;20389;-78
2022/11/03 22:16:46;;;;;;;;;;;11.80;99.90;;;;;;8432675;28;19931;-79
2022/11/03 22:38:18;;;;;;;;;;;11.60;99.90;;;;;;8427419;28;19970;-79
2022/11/03 22:46:39;;;;;;;;;;;11.50;99.90;;;;;;8427720;28;19924;-79
2022/11/03 22:50:41;;;;;;;;;;;11.40;99.90;;;;;;8409227;28;19978;-79
2022/11/03 22:54:42;;;;;;;;;;;11.40;99.90;;;;;;8424630;28;19971;-79
2022/11/03 22:58:44;;;;;;;;;;;11.40;99.90;;;;;;8422957;28;19924;-80
2022/11/03 23:13:20;;;;;;;;;;;11.30;99.90;;;;;;8425899;28;20409;-80
2022/11/03 23:21:05;;;;;;;;;;;11.30;99.90;;;;;;8421642;28;19933;-79
2022/11/03 23:21:44;;;;;;;;;;;11.30;99.90;;;;;;8424966;28;19955;-80
2022/11/03 23:25:46;;;;;;;;;;;11.30;99.90;;;;;;8432806;28;19924;-79
2022/11/03 23:35:13;;;;;;;;;;;11.30;99.90;;;;;;8423825;28;20390;-79
2022/11/03 23:39:16;;;;;;;;;;;11.20;99.90;;;;;;8431005;28;19968;-79
2022/11/03 23:43:17;;;;;;;;;;;11.20;99.90;;;;;;8413837;28;20420;-79
2022/11/03 23:51:40;;;;;;;;;;;11.20;99.90;;;;;;8425407;28;19924;-79
